OCN6AP LGMK-EDDF
Flight info
| Callsign | OCN6AP |
|---|---|
| Flight time | N/A |
| Altitude | 36000 |
| Route | VARIX L995 KEA UN132 ROPOX UM749 SKP UL617 MAKED DCT LONTA UL608 DOLEV DCT LURID DCT BEDOX DCT SIMBA DCT AKINI T161 DEBHI DEBHI1D |
| Aircraft | A320/M-SDE3FGHIRWY/LB1 |
Departure
| Time | 2026-05-08 16:20 |
|---|---|
| Airport | Mykonos Island National Airport (LGMK) |
Arrival
| Time | N/A |
|---|---|
| Airport | Frankfurt Main Airport (EDDF) |
| Time | Latitude | Longitude | Altitude | Speed | Heading |
|---|---|---|---|---|---|
| 2026-05-08 16:01 | 37.43483 | 25.34649 | 414 ft | 0 kts | 255° |
| 2026-05-08 16:13 | 37.43484 | 25.34652 | 414 ft | 3 kts | 256° |
| 2026-05-08 16:13 | 37.43487 | 25.34678 | 414 ft | 4 kts | 287° |
| 2026-05-08 16:13 | 37.43476 | 25.34694 | 409 ft | 4 kts | 12° |
| 2026-05-08 16:13 | 37.43456 | 25.34681 | 414 ft | 0 kts | 48° |
| 2026-05-08 16:15 | 37.43458 | 25.34691 | 410 ft | 2 kts | 67° |
| 2026-05-08 16:16 | 37.43460 | 25.34695 | 411 ft | 4 kts | 63° |
| 2026-05-08 16:16 | 37.43529 | 25.34688 | 411 ft | 11 kts | 342° |
| 2026-05-08 16:16 | 37.43601 | 25.34672 | 414 ft | 10 kts | 4° |
| 2026-05-08 16:16 | 37.43658 | 25.34703 | 413 ft | 9 kts | 32° |
| 2026-05-08 16:17 | 37.43703 | 25.34702 | 412 ft | 5 kts | 329° |
| 2026-05-08 16:17 | 37.43721 | 25.34712 | 413 ft | 8 kts | 24° |
| 2026-05-08 16:17 | 37.43880 | 25.34670 | 415 ft | 27 kts | 337° |
| 2026-05-08 16:17 | 37.44064 | 25.34585 | 413 ft | 29 kts | 339° |
| 2026-05-08 16:18 | 37.44236 | 25.34499 | 413 ft | 22 kts | 314° |
| 2026-05-08 16:18 | 37.44289 | 25.34434 | 412 ft | 8 kts | 359° |
| 2026-05-08 16:18 | 37.44300 | 25.34471 | 412 ft | 3 kts | 141° |
| 2026-05-08 16:18 | 37.44289 | 25.34481 | 412 ft | 1 kts | 147° |
| 2026-05-08 16:19 | 37.44287 | 25.34482 | 412 ft | 2 kts | 150° |
| 2026-05-08 16:19 | 37.44260 | 25.34496 | 412 ft | 0 kts | 159° |
| 2026-05-08 16:19 | 37.44222 | 25.34513 | 413 ft | 28 kts | 160° |
| 2026-05-08 16:19 | 37.43767 | 25.34712 | 412 ft | 108 kts | 160° |
| 2026-05-08 16:20 | 37.42857 | 25.35117 | 484 ft | 160 kts | 160° |
| 2026-05-08 16:20 | 37.41807 | 25.35584 | 1253 ft | 163 kts | 162° |
| 2026-05-08 16:20 | 37.40694 | 25.36105 | 1898 ft | 183 kts | 150° |
| 2026-05-08 16:20 | 37.39789 | 25.37424 | 2171 ft | 224 kts | 113° |
| 2026-05-08 16:21 | 37.39796 | 25.39482 | 2408 ft | 258 kts | 70° |
| 2026-05-08 16:21 | 37.40944 | 25.41277 | 2960 ft | 275 kts | 32° |
| 2026-05-08 16:21 | 37.42770 | 25.41973 | 3628 ft | 279 kts | 355° |
| 2026-05-08 16:21 | 37.44580 | 25.41282 | 4416 ft | 271 kts | 320° |
| 2026-05-08 16:22 | 37.45712 | 25.39500 | 5257 ft | 259 kts | 285° |
| 2026-05-08 16:22 | 37.45900 | 25.38043 | 5825 ft | 255 kts | 266° |
| 2026-05-08 16:22 | 37.45618 | 25.35086 | 6970 ft | 254 kts | 259° |
| 2026-05-08 16:22 | 37.44855 | 25.33075 | 7685 ft | 262 kts | 234° |
| 2026-05-08 16:23 | 37.43794 | 25.31207 | 8443 ft | 261 kts | 250° |
| 2026-05-08 16:23 | 37.43552 | 25.28980 | 9188 ft | 261 kts | 276° |
| 2026-05-08 16:23 | 37.43909 | 25.26736 | 9965 ft | 263 kts | 284° |
| 2026-05-08 16:23 | 37.44425 | 25.24487 | 10428 ft | 277 kts | 285° |
| 2026-05-08 16:24 | 37.44962 | 25.22060 | 10598 ft | 299 kts | 283° |
| 2026-05-08 16:24 | 37.45300 | 25.20338 | 10753 ft | 311 kts | 282° |
| 2026-05-08 16:24 | 37.45755 | 25.17637 | 11286 ft | 318 kts | 280° |
| 2026-05-08 16:24 | 37.46267 | 25.13975 | 12139 ft | 323 kts | 278° |
| 2026-05-08 16:25 | 37.46606 | 25.11173 | 12800 ft | 326 kts | 278° |
| 2026-05-08 16:25 | 37.46927 | 25.08337 | 13457 ft | 329 kts | 278° |
| 2026-05-08 16:25 | 37.47141 | 25.06407 | 13897 ft | 331 kts | 278° |
| 2026-05-08 16:25 | 37.47578 | 25.02592 | 14655 ft | 334 kts | 281° |
| 2026-05-08 16:26 | 37.48035 | 25.00696 | 15041 ft | 338 kts | 292° |
| 2026-05-08 16:26 | 37.49273 | 24.98156 | 15600 ft | 343 kts | 302° |
| 2026-05-08 16:26 | 37.50655 | 24.95693 | 16177 ft | 345 kts | 302° |
| 2026-05-08 16:26 | 37.52055 | 24.93224 | 16769 ft | 347 kts | 302° |
| 2026-05-08 16:27 | 37.53466 | 24.90746 | 17356 ft | 349 kts | 302° |
| 2026-05-08 16:27 | 37.54887 | 24.88248 | 17916 ft | 352 kts | 302° |
| 2026-05-08 16:27 | 37.56314 | 24.85733 | 18447 ft | 354 kts | 302° |
| 2026-05-08 16:27 | 37.57750 | 24.83195 | 18908 ft | 357 kts | 302° |
| 2026-05-08 16:28 | 37.59192 | 24.80639 | 19370 ft | 359 kts | 302° |
| 2026-05-08 16:28 | 37.60639 | 24.78068 | 19810 ft | 361 kts | 302° |
| 2026-05-08 16:28 | 37.62098 | 24.75472 | 20027 ft | 362 kts | 302° |
| 2026-05-08 16:28 | 37.63553 | 24.72884 | 20120 ft | 361 kts | 302° |
| 2026-05-08 16:29 | 37.64984 | 24.70339 | 20583 ft | 361 kts | 302° |
| 2026-05-08 16:29 | 37.66455 | 24.67717 | 21084 ft | 362 kts | 301° |
| 2026-05-08 16:29 | 37.67913 | 24.65116 | 21587 ft | 363 kts | 301° |
| 2026-05-08 16:29 | 37.69370 | 24.62513 | 22096 ft | 363 kts | 301° |
| 2026-05-08 16:30 | 37.70820 | 24.59920 | 22362 ft | 370 kts | 301° |
| 2026-05-08 16:30 | 37.72316 | 24.57246 | 22687 ft | 375 kts | 301° |
| 2026-05-08 16:30 | 37.73826 | 24.54544 | 23079 ft | 378 kts | 301° |
| 2026-05-08 16:30 | 37.75345 | 24.51824 | 23481 ft | 380 kts | 301° |
| 2026-05-08 16:31 | 37.76873 | 24.49086 | 23840 ft | 382 kts | 301° |
| 2026-05-08 16:31 | 37.78406 | 24.46337 | 24198 ft | 384 kts | 301° |
| 2026-05-08 16:31 | 37.79949 | 24.43572 | 24551 ft | 385 kts | 301° |
| 2026-05-08 16:31 | 37.81497 | 24.40797 | 24897 ft | 386 kts | 301° |
| 2026-05-08 16:32 | 37.83045 | 24.38015 | 25238 ft | 388 kts | 301° |
| 2026-05-08 16:32 | 37.84594 | 24.35226 | 25592 ft | 389 kts | 301° |
| 2026-05-08 16:32 | 37.86151 | 24.32419 | 25936 ft | 390 kts | 301° |
| 2026-05-08 16:32 | 37.87711 | 24.29607 | 26290 ft | 391 kts | 300° |
| 2026-05-08 16:33 | 37.89271 | 24.26793 | 26655 ft | 391 kts | 300° |
| 2026-05-08 16:33 | 37.90833 | 24.23971 | 26998 ft | 392 kts | 300° |
| 2026-05-08 16:33 | 37.92403 | 24.21140 | 27337 ft | 393 kts | 300° |
| 2026-05-08 16:33 | 37.93971 | 24.18315 | 27665 ft | 394 kts | 300° |
| 2026-05-08 16:34 | 37.95552 | 24.15461 | 27988 ft | 395 kts | 300° |
| 2026-05-08 16:34 | 37.97130 | 24.12606 | 28291 ft | 396 kts | 300° |
| 2026-05-08 16:34 | 37.98713 | 24.09743 | 28608 ft | 397 kts | 300° |
| 2026-05-08 16:34 | 38.00298 | 24.06873 | 28884 ft | 398 kts | 300° |
| 2026-05-08 16:35 | 38.01888 | 24.03984 | 29143 ft | 400 kts | 300° |
| 2026-05-08 16:35 | 38.03480 | 24.01088 | 29420 ft | 401 kts | 300° |
| 2026-05-08 16:35 | 38.05080 | 23.98174 | 29695 ft | 402 kts | 300° |
| 2026-05-08 16:35 | 38.06673 | 23.95266 | 29983 ft | 402 kts | 300° |
| 2026-05-08 16:36 | 38.08271 | 23.92347 | 30214 ft | 403 kts | 300° |
| 2026-05-08 16:36 | 38.09872 | 23.89425 | 30453 ft | 404 kts | 300° |
| 2026-05-08 16:36 | 38.11475 | 23.86503 | 30742 ft | 403 kts | 300° |
| 2026-05-08 16:36 | 38.13077 | 23.83579 | 31045 ft | 402 kts | 300° |
| 2026-05-08 16:37 | 38.14822 | 23.80785 | 31327 ft | 408 kts | 309° |
| 2026-05-08 16:37 | 38.17004 | 23.78437 | 31610 ft | 416 kts | 319° |
| 2026-05-08 16:37 | 38.19585 | 23.76671 | 31884 ft | 427 kts | 330° |
| 2026-05-08 16:37 | 38.22479 | 23.75618 | 32160 ft | 440 kts | 342° |
| 2026-05-08 16:38 | 38.25537 | 23.75143 | 32416 ft | 443 kts | 345° |
| 2026-05-08 16:38 | 38.28599 | 23.74709 | 32720 ft | 442 kts | 345° |
| 2026-05-08 16:38 | 38.31656 | 23.74274 | 33051 ft | 441 kts | 345° |
| 2026-05-08 16:38 | 38.34695 | 23.73838 | 33375 ft | 439 kts | 345° |
| 2026-05-08 16:39 | 38.37725 | 23.73400 | 33674 ft | 438 kts | 345° |
| 2026-05-08 16:39 | 38.40748 | 23.72960 | 33973 ft | 437 kts | 345° |
| 2026-05-08 16:39 | 38.43765 | 23.72519 | 34256 ft | 436 kts | 344° |
| 2026-05-08 16:39 | 38.46781 | 23.72075 | 34466 ft | 437 kts | 344° |
| 2026-05-08 16:40 | 38.49799 | 23.71633 | 34676 ft | 437 kts | 344° |
| 2026-05-08 16:40 | 38.52822 | 23.71193 | 34898 ft | 437 kts | 344° |
| 2026-05-08 16:40 | 38.55839 | 23.70756 | 35104 ft | 436 kts | 344° |
| 2026-05-08 16:40 | 38.58853 | 23.70321 | 35320 ft | 436 kts | 344° |
| 2026-05-08 16:41 | 38.61863 | 23.69882 | 35539 ft | 436 kts | 344° |
| 2026-05-08 16:41 | 38.64874 | 23.69441 | 35728 ft | 435 kts | 344° |
| 2026-05-08 16:41 | 38.67885 | 23.69001 | 35911 ft | 435 kts | 344° |
| 2026-05-08 16:42 | 38.73918 | 23.68115 | 36025 ft | 438 kts | 344° |
| 2026-05-08 16:42 | 38.79973 | 23.67223 | 36024 ft | 438 kts | 344° |
| 2026-05-08 16:43 | 38.86027 | 23.66336 | 36025 ft | 438 kts | 344° |
| 2026-05-08 16:43 | 38.92108 | 23.65438 | 36024 ft | 442 kts | 344° |
| 2026-05-08 16:44 | 38.98230 | 23.64529 | 36025 ft | 443 kts | 345° |
| 2026-05-08 16:44 | 39.04354 | 23.63627 | 36025 ft | 443 kts | 345° |
| 2026-05-08 16:45 | 39.10478 | 23.62724 | 36051 ft | 444 kts | 345° |
| 2026-05-08 16:45 | 39.16572 | 23.61787 | 36011 ft | 442 kts | 341° |
| 2026-05-08 16:46 | 39.22345 | 23.59548 | 36001 ft | 430 kts | 331° |
| 2026-05-08 16:46 | 39.27959 | 23.56831 | 36007 ft | 432 kts | 331° |
| 2026-05-08 16:47 | 39.33590 | 23.54118 | 36026 ft | 433 kts | 331° |
| 2026-05-08 16:47 | 39.39248 | 23.51386 | 36023 ft | 435 kts | 331° |
| 2026-05-08 16:48 | 39.44917 | 23.48637 | 36022 ft | 436 kts | 331° |
| 2026-05-08 16:48 | 39.50613 | 23.45882 | 36027 ft | 437 kts | 331° |
| 2026-05-08 16:49 | 39.56310 | 23.43122 | 36056 ft | 438 kts | 332° |
| 2026-05-08 16:49 | 39.62026 | 23.40347 | 36054 ft | 439 kts | 333° |
| 2026-05-08 16:50 | 39.67747 | 23.37565 | 36045 ft | 439 kts | 333° |
| 2026-05-08 16:50 | 39.73472 | 23.34769 | 36047 ft | 440 kts | 333° |
| 2026-05-08 16:51 | 39.79203 | 23.31965 | 36077 ft | 440 kts | 333° |
| 2026-05-08 16:51 | 39.84945 | 23.29155 | 36065 ft | 441 kts | 334° |
| 2026-05-08 16:52 | 39.90688 | 23.26342 | 36061 ft | 441 kts | 334° |
| 2026-05-08 16:52 | 39.96438 | 23.23518 | 36064 ft | 442 kts | 334° |
| 2026-05-08 16:53 | 40.05066 | 23.19265 | 36065 ft | 442 kts | 334° |
| 2026-05-08 16:53 | 40.10826 | 23.16419 | 36055 ft | 443 kts | 334° |
| 2026-05-08 16:54 | 40.16593 | 23.13565 | 36059 ft | 443 kts | 334° |
| 2026-05-08 16:54 | 40.22360 | 23.10715 | 36054 ft | 444 kts | 334° |
| 2026-05-08 16:55 | 40.28135 | 23.07855 | 36065 ft | 444 kts | 335° |
| 2026-05-08 16:55 | 40.33923 | 23.04977 | 36057 ft | 445 kts | 335° |
| 2026-05-08 16:56 | 40.39704 | 23.02094 | 36051 ft | 445 kts | 335° |
| 2026-05-08 16:56 | 40.45464 | 22.99179 | 36047 ft | 443 kts | 332° |
| 2026-05-08 16:57 | 40.50921 | 22.95462 | 36047 ft | 441 kts | 328° |
| 2026-05-08 16:57 | 40.56343 | 22.91672 | 36050 ft | 442 kts | 328° |
| 2026-05-08 16:58 | 40.61766 | 22.87866 | 36053 ft | 442 kts | 328° |
| 2026-05-08 16:58 | 40.67196 | 22.84054 | 36060 ft | 442 kts | 328° |
| 2026-05-08 16:59 | 40.72632 | 22.80236 | 36090 ft | 442 kts | 329° |
| 2026-05-08 16:59 | 40.78060 | 22.76413 | 36095 ft | 441 kts | 329° |
| 2026-05-08 17:00 | 40.83464 | 22.72597 | 36095 ft | 440 kts | 329° |
| 2026-05-08 17:00 | 40.88852 | 22.68785 | 36095 ft | 439 kts | 329° |
| 2026-05-08 17:01 | 40.94236 | 22.64974 | 36102 ft | 439 kts | 329° |
| 2026-05-08 17:01 | 40.99616 | 22.61147 | 36087 ft | 439 kts | 329° |
| 2026-05-08 17:02 | 41.04992 | 22.57314 | 36074 ft | 439 kts | 329° |
| 2026-05-08 17:02 | 41.10374 | 22.53487 | 36068 ft | 439 kts | 329° |
| 2026-05-08 17:03 | 41.15386 | 22.49064 | 36065 ft | 435 kts | 319° |
| 2026-05-08 17:03 | 41.20131 | 22.43990 | 36068 ft | 436 kts | 319° |
| 2026-05-08 17:04 | 41.24853 | 22.38948 | 36060 ft | 436 kts | 319° |
| 2026-05-08 17:04 | 41.29552 | 22.33921 | 36057 ft | 436 kts | 319° |
| 2026-05-08 17:05 | 41.34310 | 22.28822 | 36057 ft | 437 kts | 319° |
| 2026-05-08 17:05 | 41.39016 | 22.23770 | 36062 ft | 437 kts | 319° |
| 2026-05-08 17:06 | 41.43746 | 22.18681 | 36064 ft | 437 kts | 319° |
| 2026-05-08 17:06 | 41.48463 | 22.13593 | 36057 ft | 437 kts | 319° |
| 2026-05-08 17:07 | 41.53184 | 22.08484 | 36047 ft | 437 kts | 319° |
| 2026-05-08 17:07 | 41.57908 | 22.03369 | 36041 ft | 437 kts | 319° |
| 2026-05-08 17:08 | 41.61867 | 21.99077 | 36039 ft | 438 kts | 319° |
| 2026-05-08 17:08 | 41.67361 | 21.93106 | 36038 ft | 438 kts | 319° |
| 2026-05-08 17:09 | 41.72089 | 21.87968 | 36038 ft | 438 kts | 319° |
| 2026-05-08 17:09 | 41.76056 | 21.83648 | 36032 ft | 438 kts | 319° |
| 2026-05-08 17:10 | 41.80785 | 21.78479 | 36034 ft | 439 kts | 319° |
| 2026-05-08 17:10 | 41.85515 | 21.73291 | 36033 ft | 439 kts | 319° |
| 2026-05-08 17:11 | 41.90248 | 21.68100 | 36030 ft | 439 kts | 319° |
| 2026-05-08 17:11 | 41.94977 | 21.62908 | 36040 ft | 439 kts | 319° |
| 2026-05-08 17:12 | 41.99706 | 21.57701 | 36034 ft | 439 kts | 319° |
| 2026-05-08 17:12 | 42.04433 | 21.52481 | 36051 ft | 440 kts | 319° |
| 2026-05-08 17:13 | 42.09123 | 21.47292 | 36053 ft | 440 kts | 319° |
| 2026-05-08 17:13 | 42.13846 | 21.42066 | 36053 ft | 440 kts | 319° |
| 2026-05-08 17:14 | 42.18150 | 21.36267 | 36055 ft | 437 kts | 309° |
| 2026-05-08 17:14 | 42.22086 | 21.30010 | 36062 ft | 437 kts | 309° |
| 2026-05-08 17:15 | 42.26025 | 21.23752 | 36067 ft | 437 kts | 309° |
| 2026-05-08 17:15 | 42.29965 | 21.17490 | 36067 ft | 437 kts | 309° |
| 2026-05-08 17:16 | 42.33901 | 21.11225 | 36075 ft | 437 kts | 309° |
| 2026-05-08 17:16 | 42.37822 | 21.04963 | 36081 ft | 435 kts | 308° |
| 2026-05-08 17:17 | 42.41725 | 20.98711 | 36082 ft | 435 kts | 308° |
| 2026-05-08 17:17 | 42.45615 | 20.92456 | 36080 ft | 434 kts | 308° |
| 2026-05-08 17:18 | 42.49501 | 20.86200 | 36077 ft | 434 kts | 308° |
| 2026-05-08 17:18 | 42.53384 | 20.79943 | 36082 ft | 434 kts | 308° |
| 2026-05-08 17:19 | 42.57269 | 20.73674 | 36073 ft | 434 kts | 308° |
| 2026-05-08 17:19 | 42.61150 | 20.67400 | 36068 ft | 434 kts | 308° |
| 2026-05-08 17:20 | 42.65007 | 20.61153 | 36063 ft | 434 kts | 308° |
| 2026-05-08 17:20 | 42.68879 | 20.54859 | 36061 ft | 434 kts | 308° |
| 2026-05-08 17:21 | 42.72753 | 20.48548 | 36062 ft | 434 kts | 308° |
| 2026-05-08 17:21 | 42.75970 | 20.43302 | 36073 ft | 435 kts | 308° |